Time;durP1;ratioP1;P1;durP2;ratioP2;P2;SDS_P1;SDS_P2;PMS_P1;PMS_P2;Temp;Humidity;BMP_temperature;BMP_pressure;BME280_temperature;BME280_humidity;BME280_pressure;Samples;Min_cycle;Max_cycle;Signal;HPM_P1;HPM_P2
2023/04/15 00:01:26;;;;;;;13.98;8.77;;;;;;;10.89;97.38;101383.09;5040941;28;20112;-69
2023/04/15 00:03:53;;;;;;;16.42;8.88;;;;;;;10.71;98.66;101390.72;5059450;28;20024;-69
2023/04/15 00:06:22;;;;;;;16.88;9.35;;;;;;;10.74;98.17;101395.72;5068907;28;20052;-69
2023/04/15 00:08:49;;;;;;;16.20;8.95;;;;;;;10.78;97.93;101388.94;5072427;28;20017;-69
2023/04/15 00:11:15;;;;;;;20.35;9.18;;;;;;;10.74;98.04;101388.50;5072849;28;20021;-69
2023/04/15 00:13:41;;;;;;;19.52;9.13;;;;;;;10.70;98.39;101392.56;5071746;28;20445;-69
2023/04/15 00:16:07;;;;;;;17.60;9.20;;;;;;;10.65;98.98;101378.81;5071755;28;20036;-69
2023/04/15 00:18:33;;;;;;;12.57;8.35;;;;;;;10.68;98.53;101375.75;5070773;28;20013;-69
2023/04/15 00:20:59;;;;;;;19.23;8.95;;;;;;;10.60;99.14;101389.31;5070822;28;20424;-69
2023/04/15 00:23:24;;;;;;;17.38;9.00;;;;;;;10.50;99.46;101402.22;5070415;28;20033;-69
2023/04/15 00:25:50;;;;;;;14.55;9.10;;;;;;;10.26;100.00;101393.34;5067785;28;20115;-69
2023/04/15 00:28:16;;;;;;;14.52;8.52;;;;;;;10.21;100.00;101393.03;5058272;28;20025;-69
2023/04/15 00:30:42;;;;;;;16.45;8.55;;;;;;;10.22;100.00;101392.00;5058146;28;20364;-69
2023/04/15 00:33:07;;;;;;;17.13;8.35;;;;;;;10.27;100.00;101384.28;5058273;28;20028;-69
2023/04/15 00:35:33;;;;;;;16.33;8.27;;;;;;;10.18;100.00;101393.41;5054866;28;20032;-69
2023/04/15 00:37:58;;;;;;;12.48;7.68;;;;;;;10.12;100.00;101386.88;5039277;28;20039;-69
2023/04/15 00:40:25;;;;;;;13.02;8.20;;;;;;;10.21;100.00;101393.03;5060977;28;20029;-69
2023/04/15 00:42:51;;;;;;;14.35;7.53;;;;;;;10.20;100.00;101385.13;5079844;28;20021;-69
2023/04/15 00:45:16;;;;;;;14.27;8.05;;;;;;;10.34;100.00;101393.28;5058418;28;20032;-69
2023/04/15 00:47:43;;;;;;;16.42;8.00;;;;;;;10.39;100.00;101400.78;5056884;28;20090;-69
2023/04/15 00:50:09;;;;;;;13.40;7.93;;;;;;;10.35;100.00;101396.81;5056409;28;20115;-69
2023/04/15 00:52:35;;;;;;;13.82;7.45;;;;;;;10.32;100.00;101403.38;5056007;28;20048;-69
2023/04/15 00:55:01;;;;;;;14.05;7.78;;;;;;;10.14;100.00;101388.59;5057657;28;20108;-69
2023/04/15 00:57:27;;;;;;;14.25;7.82;;;;;;;10.07;100.00;101380.41;5056219;28;20032;-68
2023/04/15 00:59:54;;;;;;;11.38;7.10;;;;;;;10.21;100.00;101384.13;5057381;28;20142;-69
2023/04/15 01:02:21;;;;;;;13.40;7.22;;;;;;;10.28;100.00;101380.56;5056392;28;20055;-69
2023/04/15 01:04:46;;;;;;;13.85;7.57;;;;;;;10.21;100.00;101390.34;5058040;28;20025;-69
2023/04/15 01:07:12;;;;;;;17.33;8.65;;;;;;;10.16;100.00;101395.44;5058163;28;20103;-69
2023/04/15 01:09:37;;;;;;;12.57;7.40;;;;;;;10.42;100.00;101394.22;5056118;28;20456;-69
2023/04/15 01:12:03;;;;;;;13.77;7.60;;;;;;;10.39;100.00;101394.59;5056725;28;20029;-69
2023/04/15 01:14:29;;;;;;;11.00;7.18;;;;;;;10.29;100.00;101397.53;5057764;28;20052;-69
2023/04/15 01:16:55;;;;;;;12.73;7.60;;;;;;;10.38;100.00;101376.78;5057442;28;20033;-69
2023/04/15 01:19:20;;;;;;;14.40;8.30;;;;;;;10.23;100.00;101382.94;5057590;28;20496;-69
2023/04/15 01:21:46;;;;;;;12.07;7.30;;;;;;;10.26;100.00;101387.97;5056276;28;20031;-69
2023/04/15 01:24:12;;;;;;;13.55;7.85;;;;;;;10.31;100.00;101390.97;5055888;28;20025;-69
2023/04/15 01:26:39;;;;;;;11.95;8.13;;;;;;;10.40;100.00;101390.88;5055777;28;20040;-69
2023/04/15 01:29:05;;;;;;;12.98;8.00;;;;;;;10.31;100.00;101385.56;5056774;28;20072;-69
2023/04/15 01:31:31;;;;;;;12.18;7.78;;;;;;;10.51;100.00;101387.75;5056756;28;20028;-69
2023/04/15 01:33:57;;;;;;;10.20;7.72;;;;;;;10.69;100.00;101374.72;5080004;28;20075;-69
2023/04/15 01:36:23;;;;;;;10.27;6.97;;;;;;;10.53;100.00;101385.72;5062299;28;20540;-69
2023/04/15 01:38:49;;;;;;;11.98;7.50;;;;;;;10.35;100.00;101380.66;5056989;28;20032;-68
2023/04/15 01:41:15;;;;;;;13.85;7.60;;;;;;;10.46;100.00;101376.69;5054506;28;20037;-69
2023/04/15 01:43:41;;;;;;;12.30;7.75;;;;;;;10.46;100.00;101379.38;5039242;28;20090;-69
2023/04/15 01:46:07;;;;;;;10.18;7.30;;;;;;;10.53;100.00;101369.56;5057205;28;20025;-69
2023/04/15 01:48:32;;;;;;;10.55;7.80;;;;;;;10.68;100.00;101365.00;5056180;28;20565;-69
2023/04/15 01:50:58;;;;;;;11.43;7.53;;;;;;;10.40;100.00;101364.81;5053746;28;20025;-69
2023/04/15 01:53:24;;;;;;;11.32;7.35;;;;;;;10.52;100.00;101375.94;5054844;28;20025;-69
2023/04/15 01:55:50;;;;;;;11.82;7.40;;;;;;;10.43;100.00;101358.22;5054602;28;20328;-69
2023/04/15 01:58:16;;;;;;;8.82;7.15;;;;;;;10.43;100.00;101375.22;5053769;28;20040;-69
2023/04/15 02:00:42;;;;;;;11.40;7.85;;;;;;;10.40;100.00;101366.66;5055952;28;20037;-69
2023/04/15 02:03:08;;;;;;;9.88;7.20;;;;;;;10.30;100.00;101380.41;5055132;28;20108;-69
2023/04/15 02:05:34;;;;;;;9.30;6.95;;;;;;;10.40;100.00;101385.47;5057433;28;20078;-69
2023/04/15 02:07:59;;;;;;;10.73;7.32;;;;;;;10.26;100.00;101382.59;5060248;28;20029;-69
2023/04/15 02:10:25;;;;;;;10.10;6.90;;;;;;;10.40;100.00;101385.47;5058479;28;20029;-69
2023/04/15 02:12:50;;;;;;;11.25;7.30;;;;;;;10.43;100.00;101375.22;5043157;28;20545;-69
2023/04/15 02:15:16;;;;;;;10.75;7.20;;;;;;;10.53;100.00;101389.22;5059394;28;20040;-69
2023/04/15 02:17:44;;;;;;;9.88;6.82;;;;;;;10.34;100.00;101387.91;5059503;28;20096;-69
2023/04/15 02:20:10;;;;;;;8.15;6.75;;;;;;;10.28;100.00;101377.88;5060334;28;20151;-69
2023/04/15 02:22:37;;;;;;;10.02;7.38;;;;;;;10.44;100.00;101398.41;5059217;28;20060;-69
2023/04/15 02:25:03;;;;;;;9.57;7.57;;;;;;;10.42;100.00;101394.22;5060951;28;20049;-69
2023/04/15 02:27:29;;;;;;;9.80;6.90;;;;;;;10.34;100.00;101395.97;5059270;28;20503;-69
2023/04/15 02:29:54;;;;;;;10.52;7.28;;;;;;;10.33;100.00;101399.69;5058630;28;20056;-69
2023/04/15 02:32:22;;;;;;;11.55;7.55;;;;;;;10.05;100.00;101398.56;5059955;28;20055;-69
2023/04/15 02:34:47;;;;;;;9.65;6.90;;;;;;;10.38;100.00;101398.31;5060116;28;20437;-69
2023/04/15 02:37:13;;;;;;;10.25;7.15;;;;;;;10.45;100.00;101400.06;5058350;28;20036;-69
2023/04/15 02:39:38;;;;;;;9.73;7.15;;;;;;;10.48;100.00;101398.88;5042242;28;20029;-69
2023/04/15 02:42:04;;;;;;;8.77;7.20;;;;;;;10.46;100.00;101395.50;5058732;28;20383;-69
2023/04/15 02:44:31;;;;;;;10.13;7.22;;;;;;;10.53;100.00;101397.31;5058259;28;20025;-69
2023/04/15 02:46:57;;;;;;;11.85;7.68;;;;;;;10.53;100.00;101401.84;5053133;28;20039;-69
2023/04/15 02:49:24;;;;;;;13.98;7.80;;;;;;;10.31;100.00;101395.50;5058520;28;20044;-69
2023/04/15 02:51:50;;;;;;;9.82;7.47;;;;;;;10.24;100.00;101398.06;5058939;28;20029;-69
2023/04/15 02:54:16;;;;;;;13.50;8.30;;;;;;;10.45;100.00;101389.31;5058998;28;20055;-69
2023/04/15 02:56:42;;;;;;;8.85;7.18;;;;;;;10.60;100.00;101396.56;5060233;28;20036;-69
2023/04/15 02:59:07;;;;;;;10.57;7.60;;;;;;;10.69;99.69;101407.03;5024821;28;20088;-69
2023/04/15 03:01:32;;;;;;;10.32;7.63;;;;;;;10.47;99.60;101391.81;5059606;28;20536;-69
2023/04/15 03:03:58;;;;;;;10.05;7.32;;;;;;;10.41;100.00;101389.88;5060259;28;20131;-69
2023/04/15 03:06:23;;;;;;;11.15;7.80;;;;;;;10.49;100.00;101403.22;5058752;28;20026;-69
2023/04/15 03:08:50;;;;;;;9.85;7.55;;;;;;;10.23;100.00;101384.78;5059466;28;20066;-69
2023/04/15 03:11:15;;;;;;;12.68;7.93;;;;;;;10.29;100.00;101387.59;5057099;28;20086;-69
2023/04/15 03:13:42;;;;;;;11.38;8.15;;;;;;;10.20;100.00;101394.06;5021745;28;20037;-68
2023/04/15 03:16:08;;;;;;;13.40;8.00;;;;;;;10.29;100.00;101401.06;5058449;28;20028;-69
2023/04/15 03:18:33;;;;;;;14.10;8.10;;;;;;;10.49;100.00;101406.75;5057746;28;20388;-69
2023/04/15 03:20:58;;;;;;;13.30;8.15;;;;;;;10.45;100.00;101400.06;5058181;28;20033;-69
2023/04/15 03:23:24;;;;;;;11.40;8.15;;;;;;;10.17;100.00;101405.19;5041726;28;20029;-69
2023/04/15 03:25:50;;;;;;;12.88;8.40;;;;;;;10.11;100.00;101404.06;5059550;28;20103;-69
2023/04/15 03:28:15;;;;;;;13.27;8.18;;;;;;;10.33;100.00;101402.38;5041425;28;20024;-69
2023/04/15 03:30:40;;;;;;;10.52;7.53;;;;;;;10.26;100.00;101409.47;5063017;28;20032;-69
2023/04/15 03:33:06;;;;;;;11.13;7.82;;;;;;;10.00;100.00;101396.44;5067285;28;20037;-70
2023/04/15 03:35:31;;;;;;;10.75;7.75;;;;;;;10.21;100.00;101409.19;5061442;28;20037;-69
2023/04/15 03:37:57;;;;;;;11.38;7.50;;;;;;;10.12;100.00;101402.19;5057056;28;20068;-69
2023/04/15 03:40:22;;;;;;;13.40;7.85;;;;;;;10.04;100.00;101424.63;5064623;28;20051;-69
2023/04/15 03:42:47;;;;;;;11.25;6.55;;;;;;;9.81;100.00;101413.03;5054395;28;20045;-69
2023/04/15 03:45:13;;;;;;;13.65;7.75;;;;;;;9.95;100.00;101397.97;5052266;28;20052;-69
2023/04/15 03:47:38;;;;;;;14.27;8.25;;;;;;;10.17;100.00;101415.94;5054820;28;20056;-69
2023/04/15 03:50:04;;;;;;;12.60;7.57;;;;;;;9.84;100.00;101428.81;5035620;28;20057;-69
2023/04/15 03:52:30;;;;;;;11.52;7.40;;;;;;;9.92;100.00;101419.84;5035844;28;20116;-69
2023/04/15 03:54:55;;;;;;;13.95;7.75;;;;;;;9.74;100.00;101417.47;5018834;28;20536;-69
2023/04/15 03:57:21;;;;;;;12.60;7.60;;;;;;;9.81;100.00;101416.56;5053733;28;20064;-69
2023/04/15 03:59:46;;;;;;;14.00;7.72;;;;;;;10.00;100.00;101427.81;5052409;28;20033;-69
2023/04/15 04:02:11;;;;;;;12.10;7.18;;;;;;;9.83;100.00;101401.09;5052445;28;20150;-70
2023/04/15 04:04:37;;;;;;;10.30;7.18;;;;;;;9.96;100.00;101419.28;5053594;28;20025;-69
2023/04/15 04:07:02;;;;;;;14.90;7.47;;;;;;;9.94;100.00;101425.88;5035488;28;20071;-68
2023/04/15 04:09:28;;;;;;;13.93;8.07;;;;;;;9.97;100.00;101425.53;5051539;28;20395;-69
2023/04/15 04:11:53;;;;;;;12.98;7.85;;;;;;;10.00;100.00;101427.81;5053533;28;20016;-69
2023/04/15 04:14:18;;;;;;;10.48;7.15;;;;;;;10.04;100.00;101419.25;5053340;28;20027;-69
2023/04/15 04:16:44;;;;;;;11.45;7.38;;;;;;;10.11;100.00;101422.03;5051819;28;20106;-69
2023/04/15 04:19:10;;;;;;;15.07;8.30;;;;;;;10.06;99.80;101427.94;5035001;28;20120;-69
2023/04/15 04:21:35;;;;;;;14.20;7.25;;;;;;;10.21;99.08;101428.00;5018766;28;20035;-69
2023/04/15 04:24:01;;;;;;;10.73;7.63;;;;;;;9.86;100.00;101421.38;5035469;28;20491;-69
2023/04/15 04:26:26;;;;;;;12.93;8.02;;;;;;;9.91;100.00;101410.13;5051622;28;20148;-69
2023/04/15 04:28:52;;;;;;;14.88;7.95;;;;;;;9.77;100.00;101431.38;5050813;28;20024;-69
2023/04/15 04:31:17;;;;;;;15.13;8.35;;;;;;;9.97;100.00;101422.84;5051638;28;20151;-69
2023/04/15 04:33:43;;;;;;;13.18;7.22;;;;;;;10.03;99.98;101438.22;5051643;28;20038;-68
2023/04/15 04:36:08;;;;;;;12.82;8.55;;;;;;;10.01;100.00;101432.22;5050846;28;20040;-69
2023/04/15 04:38:34;;;;;;;14.18;8.10;;;;;;;9.79;100.00;101437.38;5052009;28;20029;-69
2023/04/15 04:40:59;;;;;;;13.50;7.30;;;;;;;9.68;100.00;101416.31;5034961;28;20541;-69
2023/04/15 04:43:25;;;;;;;14.68;7.50;;;;;;;9.96;100.00;101440.78;5052776;28;20260;-69
2023/04/15 04:45:51;;;;;;;14.93;8.25;;;;;;;9.83;100.00;101438.72;5035159;28;20096;-69
2023/04/15 04:48:17;;;;;;;11.55;7.35;;;;;;;9.67;100.00;101446.03;5030003;28;20055;-69
2023/04/15 04:50:43;;;;;;;13.45;7.75;;;;;;;9.80;100.00;101448.97;5074119;28;20057;-69
2023/04/15 04:53:09;;;;;;;15.65;8.10;;;;;;;9.69;100.00;101431.41;5057159;28;20033;-69
2023/04/15 04:55:35;;;;;;;12.18;7.43;;;;;;;9.73;100.00;101445.34;5018503;28;20032;-69
2023/04/15 04:58:01;;;;;;;14.10;7.60;;;;;;;9.60;100.00;101445.91;5051533;28;20446;-69
2023/04/15 05:00:27;;;;;;;14.35;7.25;;;;;;;9.67;100.00;101454.97;5034753;28;20119;-69
2023/04/15 05:02:53;;;;;;;13.25;7.13;;;;;;;9.59;100.00;101436.19;5050905;28;20179;-69
2023/04/15 05:05:18;;;;;;;16.23;7.95;;;;;;;9.76;100.00;101453.03;5065275;28;20074;-69
2023/04/15 05:07:44;;;;;;;14.43;7.70;;;;;;;9.93;98.97;101451.06;5050648;28;20044;-69
2023/04/15 05:10:09;;;;;;;12.63;7.68;;;;;;;9.86;99.94;101453.63;5051281;28;20032;-69
2023/04/15 05:12:36;;;;;;;14.70;7.85;;;;;;;9.64;100.00;101461.53;5052755;28;20479;-69
2023/04/15 05:15:02;;;;;;;12.38;7.93;;;;;;;10.08;99.11;101466.25;5052487;28;20498;-69
2023/04/15 05:17:27;;;;;;;14.75;7.63;;;;;;;9.62;99.94;101442.03;5050970;28;20032;-69
2023/04/15 05:19:53;;;;;;;12.95;7.90;;;;;;;9.88;98.98;101455.16;5050123;28;20581;-69
2023/04/15 05:22:18;;;;;;;13.57;7.88;;;;;;;9.47;100.00;101461.75;5017811;28;20128;-69
2023/04/15 05:24:43;;;;;;;14.10;7.82;;;;;;;9.57;100.00;101470.44;5034331;28;20661;-69
2023/04/15 05:27:10;;;;;;;12.60;8.48;;;;;;;9.55;100.00;101476.00;5034420;28;20035;-68
2023/04/15 05:29:35;;;;;;;10.50;7.07;;;;;;;9.54;100.00;101484.25;5051044;28;20035;-69
2023/04/15 05:32:01;;;;;;;11.55;7.30;;;;;;;9.52;100.00;101465.59;5051917;28;20460;-69
2023/04/15 05:34:26;;;;;;;13.30;7.93;;;;;;;9.80;99.87;101482.09;5052076;28;20555;-68
2023/04/15 05:36:51;;;;;;;11.20;7.82;;;;;;;9.83;99.77;101483.56;5051794;28;20036;-69
2023/04/15 05:39:17;;;;;;;15.88;7.75;;;;;;;9.95;98.46;101478.63;5033226;28;20396;-69
2023/04/15 05:41:43;;;;;;;13.38;7.30;;;;;;;9.87;98.61;101483.06;5052112;28;20035;-69
2023/04/15 05:44:08;;;;;;;15.52;7.85;;;;;;;9.93;98.36;101464.50;5051772;28;20068;-69
2023/04/15 05:46:34;;;;;;;13.23;7.43;;;;;;;9.81;99.02;101493.66;5051883;28;20033;-69
2023/04/15 05:48:59;;;;;;;11.70;7.72;;;;;;;9.79;99.49;101491.16;5051963;28;20078;-69
2023/04/15 05:51:25;;;;;;;17.08;8.00;;;;;;;9.93;99.24;101481.47;5051948;28;20496;-69
2023/04/15 05:53:50;;;;;;;11.35;7.55;;;;;;;9.75;99.75;101505.97;5034536;28;20025;-69
2023/04/15 05:56:16;;;;;;;12.65;7.72;;;;;;;9.98;98.37;101507.84;5034057;28;20021;-69
2023/04/15 05:58:41;;;;;;;15.95;8.13;;;;;;;10.08;98.25;101501.22;5052132;28;20036;-69
2023/04/15 06:01:07;;;;;;;15.73;8.50;;;;;;;9.76;99.54;101510.31;5052535;28;20025;-69
2023/04/15 06:03:33;;;;;;;20.60;8.18;;;;;;;9.97;98.01;101482.81;5041501;28;20032;-69
2023/04/15 06:05:59;;;;;;;14.10;8.02;;;;;;;10.02;97.46;101507.31;5051405;28;20021;-69
2023/04/15 06:08:25;;;;;;;14.07;7.57;;;;;;;10.21;96.85;101506.00;5054246;28;20055;-69
2023/04/15 06:10:50;;;;;;;14.68;8.23;;;;;;;10.01;98.11;101516.38;5052586;28;20021;-69
2023/04/15 06:13:16;;;;;;;14.65;8.60;;;;;;;10.06;97.61;101515.84;5052158;28;20029;-69
2023/04/15 06:15:41;;;;;;;13.07;7.57;;;;;;;9.95;98.06;101525.16;5049998;28;20025;-70
2023/04/15 06:18:07;;;;;;;14.05;7.55;;;;;;;9.86;98.25;101524.34;5051652;28;20039;-69
2023/04/15 06:20:32;;;;;;;15.98;7.72;;;;;;;9.85;98.46;101520.00;5051793;28;20110;-69
2023/04/15 06:22:58;;;;;;;13.75;8.27;;;;;;;10.22;97.25;101525.66;5050735;28;20036;-69
2023/04/15 06:25:23;;;;;;;15.27;8.63;;;;;;;10.37;96.08;101536.53;5050209;28;20029;-69
2023/04/15 06:27:48;;;;;;;13.05;8.27;;;;;;;10.53;94.96;101509.50;5050305;28;20037;-69
2023/04/15 06:30:14;;;;;;;16.15;9.00;;;;;;;10.77;93.63;101533.47;5049658;28;20041;-69
2023/04/15 06:32:39;;;;;;;17.52;9.07;;;;;;;10.85;93.68;101537.94;5051413;28;20054;-69
2023/04/15 06:35:05;;;;;;;14.13;8.52;;;;;;;10.88;93.05;101526.81;5051650;28;20029;-69
2023/04/15 06:37:31;;;;;;;15.45;8.00;;;;;;;10.84;93.37;101520.13;5050165;28;20072;-69
2023/04/15 06:39:57;;;;;;;16.73;8.20;;;;;;;11.16;92.36;101540.50;5033922;28;20040;-69
2023/04/15 06:42:22;;;;;;;12.05;7.72;;;;;;;11.08;91.55;101545.13;5049795;28;20037;-69
2023/04/15 06:44:48;;;;;;;14.65;8.18;;;;;;;11.09;91.40;101542.25;5050162;28;20025;-69
2023/04/15 06:47:14;;;;;;;16.38;8.52;;;;;;;11.23;91.11;101537.91;5050247;28;20068;-69
2023/04/15 06:49:40;;;;;;;14.60;8.00;;;;;;;11.18;91.02;101549.22;5049797;28;20067;-69
2023/04/15 06:52:05;;;;;;;17.25;8.10;;;;;;;11.39;90.27;101547.63;5052948;28;20033;-69
2023/04/15 06:54:31;;;;;;;14.63;7.85;;;;;;;11.04;91.29;101541.97;5037142;28;20027;-69
2023/04/15 06:56:56;;;;;;;16.75;7.82;;;;;;;11.42;90.07;101552.66;5053394;28;20048;-69
2023/04/15 06:59:22;;;;;;;14.18;8.68;;;;;;;11.69;89.20;101560.09;5053655;28;20580;-69
2023/04/15 07:01:47;;;;;;;15.40;8.15;;;;;;;11.73;89.33;101565.94;5053646;28;20032;-69
2023/04/15 07:04:12;;;;;;;15.77;7.93;;;;;;;11.49;89.92;101567.09;5061838;28;20025;-69
2023/04/15 07:06:38;;;;;;;14.80;8.43;;;;;;;11.17;89.60;101539.47;5059981;28;20514;-69
2023/04/15 07:09:04;;;;;;;15.00;8.18;;;;;;;11.40;90.00;101566.34;5055627;28;20028;-69
2023/04/15 07:11:29;;;;;;;14.95;8.57;;;;;;;11.42;89.41;101564.31;5052498;28;20045;-69
2023/04/15 07:13:55;;;;;;;15.60;8.60;;;;;;;11.38;89.07;101565.66;5053117;28;20040;-69
2023/04/15 07:16:20;;;;;;;15.57;8.70;;;;;;;11.43;88.15;101544.41;5053125;28;20021;-69
2023/04/15 07:18:46;;;;;;;13.90;8.63;;;;;;;11.39;88.45;101550.34;5052876;28;22068;-69
2023/04/15 07:21:11;;;;;;;18.33;7.97;;;;;;;11.33;89.71;101586.13;5053013;28;20450;-69
2023/04/15 07:23:37;;;;;;;16.33;8.88;;;;;;;11.55;88.16;101577.09;5054170;28;20496;-69
2023/04/15 07:26:02;;;;;;;18.23;8.90;;;;;;;11.88;87.56;101579.41;5052664;28;20021;-69
2023/04/15 07:28:28;;;;;;;13.93;8.18;;;;;;;11.79;87.17;101585.91;5054160;28;20059;-69
2023/04/15 07:30:55;;;;;;;16.02;8.85;;;;;;;11.74;87.50;101584.63;5052203;28;20472;-69
2023/04/15 07:33:21;;;;;;;15.63;8.38;;;;;;;11.71;87.30;101574.19;5052100;28;20029;-69
2023/04/15 07:35:47;;;;;;;16.05;8.90;;;;;;;11.61;87.82;101583.59;5052613;28;20028;-70
2023/04/15 07:38:12;;;;;;;14.18;8.25;;;;;;;11.84;86.98;101580.78;5054111;28;20025;-69
2023/04/15 07:40:38;;;;;;;12.82;7.90;;;;;;;11.79;87.04;101580.50;5052507;28;20127;-70
2023/04/15 07:43:04;;;;;;;14.32;7.70;;;;;;;12.11;86.53;101580.09;5053777;28;20124;-69
2023/04/15 07:45:30;;;;;;;15.38;7.95;;;;;;;12.41;85.24;101580.00;5053729;28;20112;-69
2023/04/15 07:47:55;;;;;;;16.67;8.23;;;;;;;12.40;84.92;101583.75;5052433;28;20013;-69
2023/04/15 07:50:21;;;;;;;14.25;7.22;;;;;;;12.60;84.23;101582.06;5053763;28;20036;-69
2023/04/15 07:52:48;;;;;;;12.13;8.15;;;;;;;12.48;84.28;101596.28;5052380;28;20395;-69
2023/04/15 07:55:15;;;;;;;13.93;7.60;;;;;;;12.34;84.72;101592.59;5035201;28;20028;-69
2023/04/15 07:57:41;;;;;;;14.15;8.50;;;;;;;12.14;85.04;101592.38;5053481;28;20051;-69
2023/04/15 08:00:07;;;;;;;12.23;8.25;;;;;;;11.76;85.33;101576.34;5053691;28;20123;-69
2023/04/15 08:02:32;;;;;;;13.10;7.88;;;;;;;11.95;85.78;101575.81;5052143;28;20498;-69
2023/04/15 08:04:58;;;;;;;12.13;7.60;;;;;;;12.50;84.25;101584.25;5053469;28;20025;-70
2023/04/15 08:07:24;;;;;;;13.48;7.72;;;;;;;12.43;84.18;101588.78;5052512;28;20035;-69
2023/04/15 08:09:49;;;;;;;12.68;7.72;;;;;;;12.39;84.15;101588.31;5052008;28;20029;-70
2023/04/15 08:12:15;;;;;;;11.63;7.40;;;;;;;12.02;85.26;101585.81;5051868;28;20033;-69
2023/04/15 08:14:41;;;;;;;12.23;8.23;;;;;;;12.28;85.14;101587.97;5053370;28;20025;-69
2023/04/15 08:17:07;;;;;;;14.75;7.85;;;;;;;12.07;85.25;101589.63;5051191;28;20090;-69
2023/04/15 08:19:33;;;;;;;12.90;7.65;;;;;;;11.83;85.77;101584.53;5053040;28;20416;-69
2023/04/15 08:21:58;;;;;;;12.95;7.18;;;;;;;11.76;86.23;101590.66;5051811;28;20036;-69
2023/04/15 08:24:25;;;;;;;15.07;7.78;;;;;;;11.76;86.63;101596.06;5052751;28;20064;-69
2023/04/15 08:26:51;;;;;;;13.07;8.38;;;;;;;11.98;85.68;101594.28;5051165;28;20096;-69
2023/04/15 08:29:16;;;;;;;14.10;8.23;;;;;;;11.72;87.11;101605.56;5051726;28;20037;-69
2023/04/15 08:31:42;;;;;;;14.05;7.50;;;;;;;11.94;85.89;101606.47;5051638;28;20266;-69
2023/04/15 08:34:08;;;;;;;13.38;7.10;;;;;;;11.96;85.35;101603.59;5052887;28;20065;-69
2023/04/15 08:36:33;;;;;;;14.55;7.90;;;;;;;11.71;86.22;101605.72;5067828;28;20094;-69
2023/04/15 08:39:00;;;;;;;12.02;7.03;;;;;;;11.56;86.96;101594.13;5051599;28;20036;-69
2023/04/15 08:41:38;;;;;;;13.77;7.38;;;;;;;11.75;86.82;101613.28;5051143;28;20075;-69
2023/04/15 08:44:04;;;;;;;14.52;7.25;;;;;;;11.77;86.50;101624.69;5051332;28;20020;-69
2023/04/15 08:46:32;;;;;;;12.32;7.68;;;;;;;12.04;85.35;101606.19;5051359;28;20115;-69
2023/04/15 08:48:58;;;;;;;14.43;7.22;;;;;;;11.74;84.54;101560.34;5051543;28;20039;-69
2023/04/15 08:51:24;;;;;;;11.00;7.20;;;;;;;11.82;86.06;101618.75;5034355;28;20037;-69
2023/04/15 08:53:51;;;;;;;13.38;7.45;;;;;;;12.10;84.84;101626.19;5050686;28;20070;-69
2023/04/15 08:56:18;;;;;;;13.40;7.60;;;;;;;12.12;84.75;101627.66;5052245;28;20036;-69
2023/04/15 08:58:45;;;;;;;10.65;7.28;;;;;;;12.04;85.10;101626.94;5051087;28;20036;-69
2023/04/15 09:01:12;;;;;;;12.10;7.18;;;;;;;11.91;85.25;101624.91;5052422;28;20017;-69
2023/04/15 09:03:38;;;;;;;11.50;6.88;;;;;;;11.81;86.00;101637.81;5050796;28;20111;-69
2023/04/15 09:06:05;;;;;;;11.50;6.93;;;;;;;11.67;85.78;101632.22;5052325;28;20021;-69
2023/04/15 09:08:33;;;;;;;10.73;7.05;;;;;;;11.90;85.14;101632.16;5050815;28;20100;-69
2023/04/15 09:10:58;;;;;;;10.75;7.20;;;;;;;11.85;84.69;101628.34;5052362;28;20029;-69
2023/04/15 09:13:24;;;;;;;13.32;7.20;;;;;;;12.08;84.56;101634.44;5050343;28;20384;-69
2023/04/15 09:15:49;;;;;;;12.85;7.57;;;;;;;11.94;84.62;101633.44;5051299;28;20178;-69
2023/04/15 09:18:28;;;;;;;11.35;7.30;;;;;;;11.71;85.33;101630.81;5050800;28;20124;-69
2023/04/15 09:20:54;;;;;;;10.90;7.03;;;;;;;11.87;84.58;101620.91;5051365;28;20048;-69
2023/04/15 09:23:19;;;;;;;14.05;7.45;;;;;;;11.74;85.43;101638.53;5053510;28;20048;-69
2023/04/15 09:25:45;;;;;;;13.60;7.50;;;;;;;11.88;85.32;101641.44;5069080;28;20033;-69
2023/04/15 09:28:10;;;;;;;14.27;7.13;;;;;;;11.85;84.89;101634.56;5057083;28;20036;-69
2023/04/15 09:30:36;;;;;;;13.27;6.90;;;;;;;11.91;84.84;101646.47;5054686;28;20468;-69
2023/04/15 09:33:07;;;;;;;10.55;7.03;;;;;;;12.04;84.16;101641.25;5053156;28;20028;-69
2023/04/15 09:35:33;;;;;;;11.45;7.18;;;;;;;11.90;84.79;101644.81;5052097;28;20405;-69
2023/04/15 09:38:06;;;;;;;12.07;7.05;;;;;;;12.16;83.60;101653.22;5051281;28;20098;-69
2023/04/15 09:40:36;;;;;;;11.88;7.28;;;;;;;12.17;83.35;101649.50;5051215;28;20053;-69
2023/04/15 09:43:05;;;;;;;12.95;6.68;;;;;;;12.09;83.66;101649.63;5052527;28;20040;-69
2023/04/15 09:45:31;;;;;;;13.90;7.40;;;;;;;12.03;83.98;101647.69;5052230;28;20564;-69
2023/04/15 09:47:59;;;;;;;13.45;7.40;;;;;;;11.81;84.25;101622.44;5054936;28;20025;-69
2023/04/15 09:50:28;;;;;;;14.68;7.18;;;;;;;12.10;83.95;101645.88;5057700;28;20128;-68
2023/04/15 09:52:54;;;;;;;11.43;6.82;;;;;;;12.16;83.10;101641.63;5051289;28;20048;-69
2023/04/15 09:55:20;;;;;;;12.32;7.20;;;;;;;12.33;82.64;101642.22;5051544;28;20422;-68
2023/04/15 09:57:48;;;;;;;13.27;7.00;;;;;;;12.40;82.83;101635.03;5052031;28;20070;-69
2023/04/15 10:00:14;;;;;;;12.05;7.07;;;;;;;12.61;81.29;101642.31;5052097;28;20123;-69
2023/04/15 10:02:43;;;;;;;12.32;6.70;;;;;;;12.54;82.17;101650.34;5050588;28;20040;-69
2023/04/15 10:05:14;;;;;;;12.05;7.32;;;;;;;12.80;81.40;101657.03;5051960;28;20447;-69
2023/04/15 10:07:41;;;;;;;10.07;6.80;;;;;;;12.67;81.88;101650.47;5050876;28;20174;-69
2023/04/15 10:10:08;;;;;;;14.65;7.13;;;;;;;12.64;81.80;101653.56;5050851;28;20060;-69
2023/04/15 10:12:41;;;;;;;11.35;7.07;;;;;;;12.56;81.36;101652.84;5056097;28;20029;-69
2023/04/15 10:15:14;;;;;;;15.10;7.22;;;;;;;12.78;80.69;101645.59;5059862;28;20151;-69
2023/04/15 10:17:55;;;;;;;11.82;6.75;;;;;;;12.99;80.04;101653.69;5052737;28;20017;-69
2023/04/15 10:20:22;;;;;;;11.95;6.63;;;;;;;12.98;79.96;101645.78;5051938;28;20045;-69
2023/04/15 10:22:47;;;;;;;14.30;6.65;;;;;;;13.15;80.27;101658.00;5052162;28;20510;-69
2023/04/15 10:25:14;;;;;;;11.23;6.40;;;;;;;13.40;79.59;101655.72;5052082;28;20112;-69
2023/04/15 10:27:41;;;;;;;13.60;6.10;;;;;;;13.39;78.40;101660.28;5056118;28;20057;-69
2023/04/15 10:30:08;;;;;;;12.25;6.32;;;;;;;13.61;78.83;101646.72;5037925;28;20029;-69
2023/04/15 10:32:34;;;;;;;12.05;6.43;;;;;;;14.07;76.89;101646.97;5054362;28;20024;-69
2023/04/15 10:35:00;;;;;;;9.55;5.85;;;;;;;14.16;76.62;101646.78;5055697;28;20356;-69
2023/04/15 10:37:36;;;;;;;13.50;6.38;;;;;;;14.25;75.71;101642.88;5054671;28;20127;-69
2023/04/15 10:40:27;;;;;;;8.82;5.55;;;;;;;14.55;74.61;101646.09;5054052;28;20029;-69
2023/04/15 10:43:00;;;;;;;10.95;6.00;;;;;;;14.43;74.75;101642.28;5054100;28;20368;-69
2023/04/15 10:45:35;;;;;;;14.27;6.35;;;;;;;14.74;74.17;101647.19;5053750;28;20411;-69
2023/04/15 10:48:01;;;;;;;;;;;;;;;15.08;71.96;101638.03;5055958;28;20112;-69
2023/04/15 10:50:28;;;;;;;10.43;6.15;;;;;;;15.45;72.40;101631.13;5055290;28;19963;-69
2023/04/15 10:52:55;;;;;;;11.60;6.40;;;;;;;15.48;71.99;101625.28;5052421;28;20183;-69
2023/04/15 10:55:32;;;;;;;10.65;6.28;;;;;;;15.85;69.27;101625.63;5052853;28;20090;-69
2023/04/15 10:58:00;;;;;;;9.02;6.25;;;;;;;15.56;69.65;101635.06;5053299;28;20056;-69
2023/04/15 11:00:28;;;;;;;11.65;6.82;;;;;;;15.71;70.14;101643.81;5053046;28;20045;-69
2023/04/15 11:02:55;;;;;;;11.43;6.13;;;;;;;16.25;69.21;101621.91;5054507;28;20037;-70
2023/04/15 11:05:54;;;;;;;11.05;6.80;;;;;;;16.25;68.28;101644.47;5057978;28;20051;-69
2023/04/15 11:08:58;;;;;;;10.35;6.20;;;;;;;16.03;65.79;101634.97;5042499;28;20040;-69
2023/04/15 11:12:01;;;;;;;12.50;6.20;;;;;;;16.29;65.92;101645.72;5054672;28;20468;-69
2023/04/15 11:14:26;;;;;;;11.27;6.85;;;;;;;16.53;66.41;101640.56;5054325;28;20491;-69